createdAt,value
2022-09-10T00:01:32.753Z,11.68
2022-09-10T00:04:02.692Z,11.95
2022-09-10T00:06:35.426Z,11.95
2022-09-10T00:09:03.899Z,10.82
2022-09-10T00:11:32.752Z,14.15
2022-09-10T00:14:02.580Z,13.23
2022-09-10T00:16:32.337Z,17.60
2022-09-10T00:19:02.345Z,10.90
2022-09-10T00:21:32.228Z,11.82
2022-09-10T00:24:02.200Z,12.02
2022-09-10T00:26:34.667Z,12.27
2022-09-10T00:29:03.151Z,12.10
2022-09-10T00:31:32.984Z,13.57
2022-09-10T00:34:03.563Z,10.65
2022-09-10T00:36:36.918Z,11.95
2022-09-10T00:39:08.092Z,13.60
2022-09-10T00:41:37.714Z,15.95
2022-09-10T00:44:08.404Z,11.38
2022-09-10T00:46:43.912Z,8.50
2022-09-10T00:49:17.855Z,10.82
2022-09-10T00:51:49.375Z,11.60
2022-09-10T00:54:21.483Z,14.13
2022-09-10T00:56:51.117Z,12.60
2022-09-10T00:59:22.580Z,13.55
2022-09-10T01:01:51.394Z,14.98
2022-09-10T01:04:20.237Z,16.00
2022-09-10T01:06:52.499Z,11.10
2022-09-10T01:09:22.921Z,10.23
2022-09-10T01:12:07.054Z,14.13
2022-09-10T01:15:07.630Z,16.77
2022-09-10T01:17:46.933Z,13.73
2022-09-10T01:20:51.270Z,14.98
2022-09-10T01:23:49.711Z,9.63
2022-09-10T01:26:32.685Z,10.68
2022-09-10T01:29:10.115Z,13.52
2022-09-10T01:31:50.474Z,16.25
2022-09-10T01:34:25.952Z,13.27
2022-09-10T01:37:00.051Z,13.02
2022-09-10T01:39:29.390Z,15.43
2022-09-10T01:42:00.473Z,11.98
2022-09-10T01:44:47.778Z,13.05
2022-09-10T01:47:37.232Z,11.00
2022-09-10T01:50:18.645Z,9.98
2022-09-10T01:53:00.214Z,9.55
2022-09-10T01:55:38.506Z,9.80
2022-09-10T01:58:19.898Z,15.07
2022-09-10T02:01:05.000Z,12.20
2022-09-10T02:03:37.699Z,13.00
2022-09-10T02:06:09.583Z,11.95
2022-09-10T02:08:41.893Z,10.85
2022-09-10T02:11:14.470Z,9.55
2022-09-10T02:13:48.179Z,11.55
2022-09-10T02:16:31.124Z,9.45
2022-09-10T02:19:01.768Z,9.65
2022-09-10T02:21:33.043Z,15.77
2022-09-10T02:24:06.953Z,11.73
2022-09-10T02:26:38.245Z,10.27
2022-09-10T02:29:09.160Z,14.27
2022-09-10T02:31:41.413Z,12.35
2022-09-10T02:34:10.503Z,9.93
2022-09-10T02:36:40.510Z,16.75
2022-09-10T02:39:08.912Z,10.25
2022-09-10T02:41:41.001Z,13.38
2022-09-10T02:44:09.945Z,8.02
2022-09-10T02:46:40.311Z,11.80
2022-09-10T02:49:10.072Z,12.13
2022-09-10T02:51:41.941Z,10.38
2022-09-10T02:54:10.554Z,12.95
2022-09-10T02:56:39.068Z,13.55
2022-09-10T02:59:07.580Z,9.32
2022-09-10T03:01:36.920Z,9.27
2022-09-10T03:04:08.223Z,10.48
2022-09-10T03:06:38.279Z,13.27
2022-09-10T03:09:06.687Z,14.07
2022-09-10T03:11:38.049Z,15.93
2022-09-10T03:14:06.452Z,15.00
2022-09-10T03:16:34.964Z,14.15
2022-09-10T03:19:08.177Z,15.63
2022-09-10T03:21:36.606Z,14.10
2022-09-10T03:24:05.366Z,10.65
2022-09-10T03:26:34.414Z,15.18
2022-09-10T03:29:03.370Z,11.75
2022-09-10T03:31:36.984Z,11.50
2022-09-10T03:34:06.346Z,11.43
2022-09-10T03:36:36.159Z,13.00
2022-09-10T03:39:07.385Z,13.35
2022-09-10T03:41:35.966Z,13.35
2022-09-10T03:44:05.319Z,11.13
2022-09-10T03:46:34.209Z,10.48
2022-09-10T03:49:05.063Z,8.60
2022-09-10T03:51:36.457Z,11.32
2022-09-10T03:54:06.425Z,10.38
2022-09-10T03:56:35.399Z,11.23
2022-09-10T03:59:03.872Z,12.63
2022-09-10T04:01:32.755Z,9.98
2022-09-10T04:04:01.424Z,10.35
2022-09-10T04:06:33.069Z,11.82
2022-09-10T04:09:03.355Z,11.27
2022-09-10T04:11:32.030Z,12.90
2022-09-10T04:14:01.100Z,12.00
2022-09-10T04:16:32.234Z,12.52
2022-09-10T04:19:00.779Z,15.90
2022-09-10T04:21:31.662Z,11.35
2022-09-10T04:24:00.876Z,12.93
2022-09-10T04:26:31.859Z,13.85
2022-09-10T04:29:00.335Z,10.55
2022-09-10T04:31:28.722Z,11.75
2022-09-10T04:34:02.570Z,14.45
2022-09-10T04:36:33.906Z,14.15
2022-09-10T04:39:03.915Z,11.27
2022-09-10T04:41:34.771Z,13.07
2022-09-10T04:44:03.749Z,17.35
2022-09-10T04:46:32.244Z,13.95
2022-09-10T04:49:02.761Z,13.25
2022-09-10T04:51:31.275Z,13.80
2022-09-10T04:54:00.330Z,11.60
2022-09-10T04:56:35.057Z,14.07
2022-09-10T04:59:03.597Z,10.63
2022-09-10T05:01:36.122Z,13.00
2022-09-10T05:04:05.011Z,14.15
2022-09-10T05:06:36.245Z,12.65
2022-09-10T05:09:06.834Z,11.63
2022-09-10T05:11:37.402Z,11.82
2022-09-10T05:14:07.524Z,11.63
2022-09-10T05:16:36.686Z,11.02
2022-09-10T05:19:05.253Z,15.07
2022-09-10T05:21:38.737Z,11.93
2022-09-10T05:24:07.834Z,7.32
2022-09-10T05:26:37.613Z,8.15
2022-09-10T05:29:09.592Z,11.68
2022-09-10T05:31:38.878Z,6.55
2022-09-10T05:34:08.577Z,6.90
2022-09-10T05:36:38.342Z,6.82
2022-09-10T05:39:06.830Z,9.30
2022-09-10T05:41:39.258Z,9.82
2022-09-10T05:44:09.107Z,10.75
2022-09-10T05:46:38.072Z,9.80
2022-09-10T05:49:13.188Z,10.55
2022-09-10T05:51:42.554Z,6.03
2022-09-10T05:54:11.687Z,7.40
2022-09-10T05:56:43.576Z,8.13
2022-09-10T05:59:11.962Z,7.47
2022-09-10T06:01:44.726Z,13.43
2022-09-10T06:04:13.772Z,7.90
2022-09-10T06:06:42.270Z,7.10
2022-09-10T06:09:13.888Z,9.20
2022-09-10T06:14:21.602Z,8.32
2022-09-10T06:16:52.077Z,8.02
2022-09-10T06:19:21.107Z,7.30
2022-09-10T06:21:52.508Z,7.38
2022-09-10T06:24:22.670Z,9.05
2022-09-10T06:26:55.258Z,7.20
2022-09-10T06:29:25.528Z,5.47
2022-09-10T06:31:54.198Z,6.20
2022-09-10T06:34:22.694Z,5.95
2022-09-10T06:36:51.699Z,4.38
2022-09-10T06:39:20.530Z,3.85
2022-09-10T06:41:53.368Z,6.05
2022-09-10T06:44:41.647Z,4.20
2022-09-10T06:50:10.515Z,3.65
2022-09-10T06:52:41.219Z,4.63
2022-09-10T06:55:12.170Z,4.20
2022-09-10T06:57:44.563Z,4.13
2022-09-10T07:00:17.602Z,4.97
2022-09-10T07:02:50.806Z,5.18
2022-09-10T07:05:19.830Z,3.45
2022-09-10T07:07:48.307Z,3.08
2022-09-10T07:10:17.922Z,3.33
2022-09-10T07:12:46.594Z,3.80
2022-09-10T07:15:16.583Z,2.50
2022-09-10T07:17:46.152Z,2.30
2022-09-10T07:20:15.027Z,3.53
2022-09-10T07:22:48.136Z,4.25
2022-09-10T07:25:20.662Z,4.07
2022-09-10T07:28:02.225Z,2.60
2022-09-10T07:30:36.031Z,6.90
2022-09-10T07:33:05.024Z,5.13
2022-09-10T07:35:37.405Z,2.28
2022-09-10T07:38:07.067Z,4.75
2022-09-10T07:40:40.291Z,2.90
2022-09-10T07:43:08.690Z,2.72
2022-09-10T07:45:38.681Z,3.40
2022-09-10T07:48:07.334Z,3.00
2022-09-10T07:50:39.946Z,2.88
2022-09-10T07:53:08.668Z,2.05
2022-09-10T07:55:37.637Z,2.38
2022-09-10T07:58:07.055Z,2.15
2022-09-10T08:00:38.158Z,2.50
2022-09-10T08:03:12.558Z,3.10
2022-09-10T08:05:41.840Z,2.75
2022-09-10T08:08:10.644Z,1.73
2022-09-10T08:10:39.455Z,3.95
2022-09-10T08:13:10.172Z,2.63
2022-09-10T08:15:45.084Z,4.57
2022-09-10T08:18:14.844Z,1.98
2022-09-10T08:20:43.621Z,1.95
2022-09-10T08:23:12.104Z,2.05
2022-09-10T08:25:40.651Z,3.33
2022-09-10T08:28:09.743Z,2.25
2022-09-10T08:30:38.352Z,2.67
2022-09-10T08:33:08.189Z,1.58
2022-09-10T08:35:37.987Z,4.15
2022-09-10T08:38:06.391Z,3.90
2022-09-10T08:40:34.825Z,3.90
2022-09-10T08:43:03.802Z,3.88
2022-09-10T08:45:35.233Z,3.05
2022-09-10T08:48:15.870Z,2.40
2022-09-10T08:50:50.587Z,2.95
2022-09-10T08:53:27.371Z,3.05
2022-09-10T08:56:03.321Z,1.50
2022-09-10T08:58:43.571Z,2.55
2022-09-10T09:01:17.181Z,2.70
2022-09-10T09:03:48.725Z,2.03
2022-09-10T09:06:29.155Z,2.65
2022-09-10T09:09:01.325Z,1.38
2022-09-10T09:11:46.329Z,2.50
2022-09-10T09:14:26.615Z,3.25
2022-09-10T09:17:10.053Z,2.03
2022-09-10T09:19:46.956Z,1.50
2022-09-10T09:22:21.257Z,2.38
2022-09-10T09:24:57.549Z,5.38
2022-09-10T09:27:30.009Z,3.63
2022-09-10T09:30:03.178Z,3.30
2022-09-10T09:32:37.129Z,3.58
2022-09-10T09:35:19.012Z,2.60
2022-09-10T09:37:48.782Z,6.30
2022-09-10T09:40:30.327Z,5.07
2022-09-10T09:43:06.336Z,3.47
2022-09-10T09:45:38.515Z,3.92
2022-09-10T09:48:08.729Z,3.58
2022-09-10T09:50:41.943Z,3.85
2022-09-10T09:53:16.410Z,3.92
2022-09-10T09:55:48.218Z,2.42
2022-09-10T09:58:32.248Z,3.05
2022-09-10T10:01:15.023Z,4.15
2022-09-10T10:03:51.788Z,3.83
2022-09-10T10:06:24.752Z,2.53
2022-09-10T10:09:05.898Z,3.20
2022-09-10T10:11:53.796Z,3.65
2022-09-10T10:14:35.171Z,3.88
2022-09-10T10:17:04.207Z,5.13
2022-09-10T10:19:35.138Z,9.30
2022-09-10T10:22:22.811Z,4.28
2022-09-10T10:24:54.101Z,2.95
2022-09-10T10:27:32.941Z,2.50
2022-09-10T10:30:06.240Z,7.05
2022-09-10T10:32:48.935Z,3.45
2022-09-10T10:35:32.853Z,2.28
2022-09-10T10:38:29.300Z,4.30
2022-09-10T10:41:33.498Z,3.17
2022-09-10T10:44:17.631Z,2.47
2022-09-10T10:46:54.764Z,3.22
2022-09-10T10:49:33.013Z,3.95
2022-09-10T10:52:09.958Z,1.80
2022-09-10T10:55:03.750Z,1.67
2022-09-10T10:57:52.851Z,2.65
2022-09-10T11:00:22.294Z,8.38
2022-09-10T11:02:54.817Z,3.25
2022-09-10T11:05:31.949Z,3.33
2022-09-10T11:08:05.216Z,1.63
2022-09-10T11:10:40.270Z,4.47
2022-09-10T11:13:14.358Z,3.47
2022-09-10T11:15:47.565Z,4.72
2022-09-10T11:18:21.231Z,2.05
2022-09-10T11:20:58.344Z,2.63
2022-09-10T11:23:33.680Z,4.03
2022-09-10T11:26:10.865Z,3.47
2022-09-10T11:28:44.888Z,4.03
2022-09-10T11:31:30.536Z,3.42
2022-09-10T11:34:03.642Z,2.70
2022-09-10T11:36:40.077Z,2.30
2022-09-10T11:39:17.702Z,2.30
2022-09-10T11:41:53.013Z,3.42
2022-09-10T11:44:40.644Z,2.95
2022-09-10T11:47:17.160Z,2.17
2022-09-10T11:49:55.476Z,2.97
2022-09-10T11:52:25.948Z,3.90
2022-09-10T11:54:55.657Z,3.10
2022-09-10T11:57:35.300Z,2.67
2022-09-10T12:00:15.859Z,2.97
2022-09-10T12:03:31.334Z,4.68
2022-09-10T12:06:08.263Z,2.83
2022-09-10T12:08:57.094Z,4.75
2022-09-10T12:11:35.241Z,4.82
2022-09-10T12:14:09.369Z,3.97
2022-09-10T12:16:44.164Z,5.45
2022-09-10T12:19:25.600Z,4.85
2022-09-10T12:21:58.534Z,2.60
2022-09-10T12:24:40.393Z,4.03
2022-09-10T12:27:10.238Z,3.30
2022-09-10T12:29:41.490Z,2.60
2022-09-10T12:32:31.425Z,5.38
2022-09-10T12:35:46.280Z,3.72
2022-09-10T12:38:55.483Z,3.08
2022-09-10T12:42:02.158Z,4.53
2022-09-10T12:44:56.354Z,4.45
2022-09-10T12:47:50.773Z,3.38
2022-09-10T12:50:36.400Z,3.45
2022-09-10T12:53:38.771Z,4.05
2022-09-10T12:56:33.751Z,3.50
2022-09-10T12:59:20.092Z,3.05
2022-09-10T13:01:54.611Z,2.80
2022-09-10T13:04:28.695Z,2.72
2022-09-10T13:07:00.556Z,3.50
2022-09-10T13:09:33.676Z,5.20
2022-09-10T13:12:08.312Z,6.10
2022-09-10T13:14:41.326Z,3.83
2022-09-10T13:17:38.045Z,3.25
2022-09-10T13:20:33.867Z,4.07
2022-09-10T13:23:06.114Z,4.03
2022-09-10T13:25:41.597Z,4.38
2022-09-10T13:28:47.655Z,3.45
2022-09-10T13:31:22.696Z,3.92
2022-09-10T13:34:18.071Z,4.07
2022-09-10T13:36:58.975Z,3.88
2022-09-10T13:39:47.473Z,4.93
2022-09-10T13:42:35.883Z,3.88
2022-09-10T13:45:23.725Z,4.53
2022-09-10T13:47:58.584Z,4.28
2022-09-10T13:50:33.977Z,3.15
2022-09-10T13:53:08.322Z,3.75
2022-09-10T13:55:37.734Z,4.32
2022-09-10T13:58:14.664Z,3.10
2022-09-10T14:00:56.092Z,2.47
2022-09-10T14:03:26.810Z,2.95
2022-09-10T14:05:59.256Z,2.97
2022-09-10T14:08:30.821Z,5.22
2022-09-10T14:11:02.243Z,2.55
2022-09-10T14:13:37.029Z,2.75
2022-09-10T14:16:08.764Z,2.28
2022-09-10T14:18:44.151Z,2.85
2022-09-10T14:21:16.330Z,2.88
2022-09-10T14:23:46.333Z,4.03
2022-09-10T14:26:24.312Z,3.53
2022-09-10T14:28:58.997Z,2.35
2022-09-10T14:31:36.967Z,3.88
2022-09-10T14:34:32.800Z,2.42
2022-09-10T14:37:24.236Z,2.95
2022-09-10T14:39:52.899Z,4.60
2022-09-10T14:42:27.354Z,10.57
2022-09-10T14:44:56.201Z,4.38
2022-09-10T14:47:30.339Z,3.92
2022-09-10T14:50:28.524Z,4.72
2022-09-10T14:52:58.517Z,3.53
2022-09-10T14:55:30.748Z,5.18
2022-09-10T14:58:00.219Z,5.03
2022-09-10T15:00:29.229Z,7.47
2022-09-10T15:02:58.635Z,4.35
2022-09-10T15:05:27.349Z,5.10
2022-09-10T15:07:57.112Z,5.10
2022-09-10T15:10:25.643Z,5.13
2022-09-10T15:12:55.700Z,3.10
2022-09-10T15:15:25.092Z,3.28
2022-09-10T15:17:53.817Z,2.47
2022-09-10T15:20:27.147Z,5.55
2022-09-10T15:22:57.708Z,3.47
2022-09-10T15:25:37.998Z,2.00
2022-09-10T15:28:07.695Z,3.15
2022-09-10T15:30:37.068Z,2.97
2022-09-10T15:33:05.578Z,5.97
2022-09-10T15:35:34.184Z,3.20
2022-09-10T15:38:03.953Z,3.53
2022-09-10T15:40:32.512Z,3.17
2022-09-10T15:43:00.884Z,3.20
2022-09-10T15:45:29.632Z,4.07
2022-09-10T15:47:59.249Z,3.38
2022-09-10T15:50:27.814Z,4.25
2022-09-10T15:52:56.404Z,3.28
2022-09-10T15:55:27.654Z,3.58
2022-09-10T15:57:56.170Z,2.85
2022-09-10T16:00:24.711Z,5.43
2022-09-10T16:02:54.087Z,4.32
2022-09-10T16:05:22.796Z,3.50
2022-09-10T16:07:51.287Z,5.25
2022-09-10T16:10:19.741Z,3.78
2022-09-10T16:12:49.787Z,4.25
2022-09-10T16:15:18.219Z,3.00
2022-09-10T16:17:46.684Z,2.40
2022-09-10T16:20:15.191Z,3.15
2022-09-10T16:22:43.604Z,3.13
2022-09-10T16:25:12.225Z,6.18
2022-09-10T16:27:43.346Z,4.15
2022-09-10T16:30:14.505Z,7.13
2022-09-10T16:32:42.990Z,5.35
2022-09-10T16:35:12.074Z,7.40
2022-09-10T16:37:40.857Z,4.75
2022-09-10T16:40:11.295Z,7.57
2022-09-10T16:42:39.759Z,6.43
2022-09-10T16:45:09.539Z,7.82
2022-09-10T16:47:39.429Z,8.38
2022-09-10T16:50:08.743Z,6.72
2022-09-10T16:52:37.733Z,7.55
2022-09-10T16:55:07.130Z,5.15
2022-09-10T16:57:35.578Z,7.93
2022-09-10T17:00:07.057Z,8.18
2022-09-10T17:02:35.803Z,6.15
2022-09-10T17:05:06.382Z,6.07
2022-09-10T17:07:34.850Z,5.25
2022-09-10T17:10:03.253Z,5.30
2022-09-10T17:12:32.060Z,5.22
2022-09-10T17:15:00.531Z,6.53
2022-09-10T17:17:29.000Z,6.28
2022-09-10T17:19:59.510Z,7.35
2022-09-10T17:22:29.857Z,6.25
2022-09-10T17:24:58.430Z,7.03
2022-09-10T17:27:27.903Z,10.27
2022-09-10T17:29:56.426Z,7.63
2022-09-10T17:32:25.406Z,5.20
2022-09-10T17:34:54.665Z,6.40
2022-09-10T17:37:24.543Z,8.75
2022-09-10T17:39:55.331Z,7.45
2022-09-10T17:42:24.031Z,6.30
2022-09-10T17:44:52.473Z,6.18
2022-09-10T17:47:20.948Z,6.25
2022-09-10T17:49:49.604Z,7.85
2022-09-10T17:52:18.874Z,11.38
2022-09-10T17:54:47.264Z,8.25
2022-09-10T17:57:17.526Z,8.57
2022-09-10T17:59:46.046Z,11.07
2022-09-10T18:02:16.316Z,13.15
2022-09-10T18:04:45.051Z,9.27
2022-09-10T18:07:13.523Z,8.18
2022-09-10T18:09:41.990Z,6.68
2022-09-10T18:12:10.638Z,7.95
2022-09-10T18:14:40.486Z,22.88
2022-09-10T18:17:08.912Z,129.25
2022-09-10T18:19:37.265Z,191.13
2022-09-10T18:22:06.447Z,125.47
2022-09-10T18:24:34.920Z,50.45
2022-09-10T18:27:04.852Z,26.33
2022-09-10T18:29:33.427Z,21.55
2022-09-10T18:32:04.669Z,17.65
2022-09-10T18:34:33.182Z,20.42
2022-09-10T18:37:02.942Z,18.48
2022-09-10T18:39:33.402Z,14.45
2022-09-10T18:42:02.904Z,28.20
2022-09-10T18:44:33.466Z,26.38
2022-09-10T18:47:02.547Z,25.90
2022-09-10T18:49:33.651Z,28.52
2022-09-10T18:52:02.124Z,20.40
2022-09-10T18:54:30.788Z,14.73
2022-09-10T18:56:59.354Z,20.48
2022-09-10T18:59:28.150Z,22.38
2022-09-10T19:01:57.055Z,27.73
2022-09-10T19:04:27.461Z,19.60
2022-09-10T19:06:58.357Z,20.20
2022-09-10T19:09:28.438Z,19.17
2022-09-10T19:11:58.771Z,12.38
2022-09-10T19:14:29.511Z,13.50
2022-09-10T19:16:59.326Z,12.85
2022-09-10T19:19:30.082Z,15.65
2022-09-10T19:22:03.773Z,14.10
2022-09-10T19:24:53.640Z,13.38
2022-09-10T19:27:21.532Z,16.38
2022-09-10T19:29:50.466Z,13.43
2022-09-10T19:32:20.051Z,16.10
2022-09-10T19:34:50.995Z,11.70
2022-09-10T19:37:21.166Z,16.58
2022-09-10T19:39:49.718Z,16.05
2022-09-10T19:42:18.402Z,18.08
2022-09-10T19:44:46.865Z,16.55
2022-09-10T19:47:15.334Z,17.55
2022-09-10T19:49:43.716Z,15.25
2022-09-10T19:52:12.177Z,13.23
2022-09-10T19:54:41.936Z,15.35
2022-09-10T19:57:10.395Z,11.68
2022-09-10T19:59:39.060Z,18.13
2022-09-10T20:02:07.888Z,16.23
2022-09-10T20:04:36.964Z,14.52
2022-09-10T20:07:06.646Z,15.75
2022-09-10T20:09:39.660Z,13.65
2022-09-10T20:12:10.893Z,16.15
2022-09-10T20:14:39.535Z,12.60
2022-09-10T20:17:08.095Z,11.93
2022-09-10T20:19:37.081Z,16.58
2022-09-10T20:22:05.698Z,16.13
2022-09-10T20:24:34.386Z,16.50
2022-09-10T20:27:02.892Z,15.57
2022-09-10T20:29:33.248Z,17.23
2022-09-10T20:32:01.727Z,18.83
2022-09-10T20:34:31.401Z,16.05
2022-09-10T20:36:59.999Z,14.35
2022-09-10T20:39:28.484Z,14.98
2022-09-10T20:41:57.896Z,15.95
2022-09-10T20:44:26.275Z,13.68
2022-09-10T20:46:56.506Z,15.93
2022-09-10T20:49:24.918Z,13.80
2022-09-10T20:51:53.709Z,16.63
2022-09-10T20:54:22.100Z,22.70
2022-09-10T20:56:50.526Z,19.33
2022-09-10T20:59:19.584Z,20.08
2022-09-10T21:01:50.883Z,16.65
2022-09-10T21:04:22.083Z,18.33
2022-09-10T21:06:50.449Z,25.23
2022-09-10T21:09:19.206Z,17.15
2022-09-10T21:11:47.614Z,21.70
2022-09-10T21:14:17.296Z,20.63
2022-09-10T21:16:47.525Z,25.48
